sensor_id;sensor_type;location;lat;lon;timestamp;temperature;humidity
3360;DHT22;1693;49.602;11.046;2022-07-21T00:02:27;24.20;99.90
3360;DHT22;1693;49.602;11.046;2022-07-21T00:04:54;24.10;99.90
3360;DHT22;1693;49.602;11.046;2022-07-21T00:07:21;24.00;99.90
3360;DHT22;1693;49.602;11.046;2022-07-21T00:09:47;23.90;99.90
3360;DHT22;1693;49.602;11.046;2022-07-21T00:12:14;23.90;99.90
3360;DHT22;1693;49.602;11.046;2022-07-21T00:14:43;23.90;99.90
3360;DHT22;1693;49.602;11.046;2022-07-21T00:17:10;23.80;99.90
3360;DHT22;1693;49.602;11.046;2022-07-21T00:19:37;23.80;99.90
3360;DHT22;1693;49.602;11.046;2022-07-21T00:22:04;23.80;99.90
3360;DHT22;1693;49.602;11.046;2022-07-21T00:24:31;23.70;99.90
3360;DHT22;1693;49.602;11.046;2022-07-21T00:26:58;23.70;99.90
3360;DHT22;1693;49.602;11.046;2022-07-21T00:29:26;23.70;99.90
3360;DHT22;1693;49.602;11.046;2022-07-21T00:31:54;23.70;99.90
3360;DHT22;1693;49.602;11.046;2022-07-21T00:34:21;23.70;99.90
3360;DHT22;1693;49.602;11.046;2022-07-21T00:36:48;23.70;99.90
3360;DHT22;1693;49.602;11.046;2022-07-21T00:39:15;23.70;99.90
3360;DHT22;1693;49.602;11.046;2022-07-21T00:41:42;23.70;99.90
3360;DHT22;1693;49.602;11.046;2022-07-21T00:44:19;23.70;99.90
3360;DHT22;1693;49.602;11.046;2022-07-21T00:46:46;23.60;99.90
3360;DHT22;1693;49.602;11.046;2022-07-21T00:49:16;23.60;99.90
3360;DHT22;1693;49.602;11.046;2022-07-21T00:51:43;23.60;99.90
3360;DHT22;1693;49.602;11.046;2022-07-21T00:54:10;23.60;99.90
3360;DHT22;1693;49.602;11.046;2022-07-21T00:56:38;23.50;99.90
3360;DHT22;1693;49.602;11.046;2022-07-21T00:59:06;23.50;99.90
3360;DHT22;1693;49.602;11.046;2022-07-21T01:01:33;23.40;99.90
3360;DHT22;1693;49.602;11.046;2022-07-21T01:04:00;23.40;99.90
3360;DHT22;1693;49.602;11.046;2022-07-21T01:06:28;23.50;99.90
3360;DHT22;1693;49.602;11.046;2022-07-21T01:08:56;23.30;99.90
3360;DHT22;1693;49.602;11.046;2022-07-21T01:11:24;23.30;99.90
3360;DHT22;1693;49.602;11.046;2022-07-21T01:13:52;23.30;99.90
3360;DHT22;1693;49.602;11.046;2022-07-21T01:16:19;23.00;99.90
3360;DHT22;1693;49.602;11.046;2022-07-21T01:18:46;22.50;99.90
3360;DHT22;1693;49.602;11.046;2022-07-21T01:21:28;22.00;99.90
3360;DHT22;1693;49.602;11.046;2022-07-21T01:23:56;21.80;99.90
3360;DHT22;1693;49.602;11.046;2022-07-21T01:26:23;21.70;99.90
3360;DHT22;1693;49.602;11.046;2022-07-21T01:28:50;21.60;99.90
3360;DHT22;1693;49.602;11.046;2022-07-21T01:31:18;21.40;99.90
3360;DHT22;1693;49.602;11.046;2022-07-21T01:33:45;21.30;99.90
3360;DHT22;1693;49.602;11.046;2022-07-21T01:36:12;21.00;99.90
3360;DHT22;1693;49.602;11.046;2022-07-21T01:38:40;20.80;99.90
3360;DHT22;1693;49.602;11.046;2022-07-21T01:41:24;20.70;99.90
3360;DHT22;1693;49.602;11.046;2022-07-21T01:44:00;20.50;99.90
3360;DHT22;1693;49.602;11.046;2022-07-21T01:46:30;20.40;99.90
3360;DHT22;1693;49.602;11.046;2022-07-21T01:48:57;20.40;99.90
3360;DHT22;1693;49.602;11.046;2022-07-21T01:51:25;20.40;99.90
3360;DHT22;1693;49.602;11.046;2022-07-21T01:53:54;20.20;99.90
3360;DHT22;1693;49.602;11.046;2022-07-21T01:56:22;20.10;99.90
3360;DHT22;1693;49.602;11.046;2022-07-21T01:58:51;20.10;99.90
3360;DHT22;1693;49.602;11.046;2022-07-21T02:01:19;20.10;99.90
3360;DHT22;1693;49.602;11.046;2022-07-21T02:03:47;20.00;99.90
3360;DHT22;1693;49.602;11.046;2022-07-21T02:06:15;19.90;99.90
3360;DHT22;1693;49.602;11.046;2022-07-21T02:08:42;19.80;99.90
3360;DHT22;1693;49.602;11.046;2022-07-21T02:11:12;19.70;99.90
3360;DHT22;1693;49.602;11.046;2022-07-21T02:13:39;19.80;99.90
3360;DHT22;1693;49.602;11.046;2022-07-21T02:16:07;19.80;99.90
3360;DHT22;1693;49.602;11.046;2022-07-21T02:18:34;19.70;99.90
3360;DHT22;1693;49.602;11.046;2022-07-21T02:21:02;19.60;99.90
3360;DHT22;1693;49.602;11.046;2022-07-21T02:23:29;19.60;99.90
3360;DHT22;1693;49.602;11.046;2022-07-21T02:25:57;19.70;99.90
3360;DHT22;1693;49.602;11.046;2022-07-21T02:28:25;19.70;99.90
3360;DHT22;1693;49.602;11.046;2022-07-21T02:30:53;19.60;99.90
3360;DHT22;1693;49.602;11.046;2022-07-21T02:33:20;19.50;99.90
3360;DHT22;1693;49.602;11.046;2022-07-21T02:35:48;19.40;99.90
3360;DHT22;1693;49.602;11.046;2022-07-21T02:38:15;19.30;99.90
3360;DHT22;1693;49.602;11.046;2022-07-21T02:40:42;19.50;99.90
3360;DHT22;1693;49.602;11.046;2022-07-21T02:43:09;19.40;99.90
3360;DHT22;1693;49.602;11.046;2022-07-21T02:45:38;19.40;99.90
3360;DHT22;1693;49.602;11.046;2022-07-21T02:48:08;19.50;99.90
3360;DHT22;1693;49.602;11.046;2022-07-21T02:50:37;19.60;99.90
3360;DHT22;1693;49.602;11.046;2022-07-21T02:53:07;19.60;99.90
3360;DHT22;1693;49.602;11.046;2022-07-21T02:55:34;19.50;99.90
3360;DHT22;1693;49.602;11.046;2022-07-21T02:58:06;19.40;99.90
3360;DHT22;1693;49.602;11.046;2022-07-21T03:00:35;19.50;99.90
3360;DHT22;1693;49.602;11.046;2022-07-21T03:03:04;19.60;99.90
3360;DHT22;1693;49.602;11.046;2022-07-21T03:05:31;19.70;99.90
3360;DHT22;1693;49.602;11.046;2022-07-21T03:07:58;19.80;99.90
3360;DHT22;1693;49.602;11.046;2022-07-21T03:10:25;19.90;99.90
3360;DHT22;1693;49.602;11.046;2022-07-21T03:12:53;19.90;99.90
3360;DHT22;1693;49.602;11.046;2022-07-21T03:15:20;20.00;99.90
3360;DHT22;1693;49.602;11.046;2022-07-21T03:17:47;20.00;99.90
3360;DHT22;1693;49.602;11.046;2022-07-21T03:20:16;20.00;99.90
3360;DHT22;1693;49.602;11.046;2022-07-21T03:22:43;20.10;99.90
3360;DHT22;1693;49.602;11.046;2022-07-21T03:25:10;20.10;99.90
3360;DHT22;1693;49.602;11.046;2022-07-21T03:27:37;20.10;99.90
3360;DHT22;1693;49.602;11.046;2022-07-21T03:30:06;20.10;99.90
3360;DHT22;1693;49.602;11.046;2022-07-21T03:32:34;20.10;99.90
3360;DHT22;1693;49.602;11.046;2022-07-21T03:35:02;20.10;99.90
3360;DHT22;1693;49.602;11.046;2022-07-21T03:37:31;20.10;99.90
3360;DHT22;1693;49.602;11.046;2022-07-21T03:39:58;20.20;99.90
3360;DHT22;1693;49.602;11.046;2022-07-21T03:42:25;20.10;99.90
3360;DHT22;1693;49.602;11.046;2022-07-21T03:44:52;20.10;99.90
3360;DHT22;1693;49.602;11.046;2022-07-21T03:47:19;20.20;99.90
3360;DHT22;1693;49.602;11.046;2022-07-21T03:49:46;20.30;99.90
3360;DHT22;1693;49.602;11.046;2022-07-21T03:52:14;20.30;99.90
3360;DHT22;1693;49.602;11.046;2022-07-21T03:54:42;20.40;99.90
3360;DHT22;1693;49.602;11.046;2022-07-21T03:57:10;20.50;99.90
3360;DHT22;1693;49.602;11.046;2022-07-21T03:59:37;20.50;99.90
3360;DHT22;1693;49.602;11.046;2022-07-21T04:02:04;20.50;99.90
3360;DHT22;1693;49.602;11.046;2022-07-21T04:04:31;20.30;99.90
3360;DHT22;1693;49.602;11.046;2022-07-21T04:06:58;20.20;99.90
3360;DHT22;1693;49.602;11.046;2022-07-21T04:09:25;20.00;99.90
3360;DHT22;1693;49.602;11.046;2022-07-21T04:11:53;20.00;99.90
3360;DHT22;1693;49.602;11.046;2022-07-21T04:14:20;19.80;99.90
3360;DHT22;1693;49.602;11.046;2022-07-21T04:16:47;19.80;99.90
3360;DHT22;1693;49.602;11.046;2022-07-21T04:19:14;19.70;99.90
3360;DHT22;1693;49.602;11.046;2022-07-21T04:21:41;19.70;99.90
3360;DHT22;1693;49.602;11.046;2022-07-21T04:24:08;19.70;99.90
3360;DHT22;1693;49.602;11.046;2022-07-21T04:26:35;19.70;99.90
3360;DHT22;1693;49.602;11.046;2022-07-21T04:29:04;19.70;99.90
3360;DHT22;1693;49.602;11.046;2022-07-21T04:31:31;19.70;99.90
3360;DHT22;1693;49.602;11.046;2022-07-21T04:33:58;19.70;99.90
3360;DHT22;1693;49.602;11.046;2022-07-21T04:36:25;19.70;99.90
3360;DHT22;1693;49.602;11.046;2022-07-21T04:38:52;19.70;99.90
3360;DHT22;1693;49.602;11.046;2022-07-21T04:41:20;19.70;99.90
3360;DHT22;1693;49.602;11.046;2022-07-21T04:43:47;19.70;99.90
3360;DHT22;1693;49.602;11.046;2022-07-21T04:46:15;19.70;99.90
3360;DHT22;1693;49.602;11.046;2022-07-21T04:48:42;19.80;99.90
3360;DHT22;1693;49.602;11.046;2022-07-21T04:51:09;19.70;99.90
3360;DHT22;1693;49.602;11.046;2022-07-21T04:53:36;19.80;99.90
3360;DHT22;1693;49.602;11.046;2022-07-21T04:56:03;19.80;99.90
3360;DHT22;1693;49.602;11.046;2022-07-21T04:58:30;19.70;99.90
3360;DHT22;1693;49.602;11.046;2022-07-21T05:00:58;19.70;99.90
3360;DHT22;1693;49.602;11.046;2022-07-21T05:03:26;19.70;99.90
3360;DHT22;1693;49.602;11.046;2022-07-21T05:05:53;19.60;99.90
3360;DHT22;1693;49.602;11.046;2022-07-21T05:08:20;19.60;99.90
3360;DHT22;1693;49.602;11.046;2022-07-21T05:10:47;19.50;99.90
3360;DHT22;1693;49.602;11.046;2022-07-21T05:13:14;19.50;99.90
3360;DHT22;1693;49.602;11.046;2022-07-21T05:15:41;19.60;99.90
3360;DHT22;1693;49.602;11.046;2022-07-21T05:18:08;19.60;99.90
3360;DHT22;1693;49.602;11.046;2022-07-21T05:20:37;19.70;99.90
3360;DHT22;1693;49.602;11.046;2022-07-21T05:23:04;19.70;99.90
3360;DHT22;1693;49.602;11.046;2022-07-21T05:25:31;19.70;99.90
3360;DHT22;1693;49.602;11.046;2022-07-21T05:28:01;19.70;99.90
3360;DHT22;1693;49.602;11.046;2022-07-21T05:30:28;19.70;99.90
3360;DHT22;1693;49.602;11.046;2022-07-21T05:32:59;19.70;99.90
3360;DHT22;1693;49.602;11.046;2022-07-21T05:35:26;19.80;99.90
3360;DHT22;1693;49.602;11.046;2022-07-21T05:37:54;19.70;99.90
3360;DHT22;1693;49.602;11.046;2022-07-21T05:40:21;19.70;99.90
3360;DHT22;1693;49.602;11.046;2022-07-21T05:42:48;19.70;99.90
3360;DHT22;1693;49.602;11.046;2022-07-21T05:45:15;19.70;99.90
3360;DHT22;1693;49.602;11.046;2022-07-21T05:47:43;19.70;99.90
3360;DHT22;1693;49.602;11.046;2022-07-21T05:50:10;19.80;99.90
3360;DHT22;1693;49.602;11.046;2022-07-21T05:52:37;19.90;99.90
3360;DHT22;1693;49.602;11.046;2022-07-21T05:55:08;19.90;99.90
3360;DHT22;1693;49.602;11.046;2022-07-21T05:57:37;19.90;99.90
3360;DHT22;1693;49.602;11.046;2022-07-21T06:00:05;19.90;99.90
3360;DHT22;1693;49.602;11.046;2022-07-21T06:02:32;20.00;99.90
3360;DHT22;1693;49.602;11.046;2022-07-21T06:05:00;20.00;99.90
3360;DHT22;1693;49.602;11.046;2022-07-21T06:07:27;20.00;99.90
3360;DHT22;1693;49.602;11.046;2022-07-21T06:09:54;20.10;99.90
3360;DHT22;1693;49.602;11.046;2022-07-21T06:12:22;20.20;99.90
3360;DHT22;1693;49.602;11.046;2022-07-21T06:14:49;20.30;99.90
3360;DHT22;1693;49.602;11.046;2022-07-21T06:17:16;20.40;99.90
3360;DHT22;1693;49.602;11.046;2022-07-21T06:19:43;20.50;99.90
3360;DHT22;1693;49.602;11.046;2022-07-21T06:22:10;20.60;99.90
3360;DHT22;1693;49.602;11.046;2022-07-21T06:24:37;20.60;99.90
3360;DHT22;1693;49.602;11.046;2022-07-21T06:27:05;20.60;99.90
3360;DHT22;1693;49.602;11.046;2022-07-21T06:29:34;20.60;99.90
3360;DHT22;1693;49.602;11.046;2022-07-21T06:32:01;20.80;99.90
3360;DHT22;1693;49.602;11.046;2022-07-21T06:34:28;20.90;99.90
3360;DHT22;1693;49.602;11.046;2022-07-21T06:36:56;21.00;99.90
3360;DHT22;1693;49.602;11.046;2022-07-21T06:39:23;21.20;99.90
3360;DHT22;1693;49.602;11.046;2022-07-21T06:41:50;21.30;99.90
3360;DHT22;1693;49.602;11.046;2022-07-21T06:44:17;21.30;99.90
3360;DHT22;1693;49.602;11.046;2022-07-21T06:46:46;21.50;99.90
3360;DHT22;1693;49.602;11.046;2022-07-21T06:49:13;21.40;99.90
3360;DHT22;1693;49.602;11.046;2022-07-21T06:51:40;21.40;99.90
3360;DHT22;1693;49.602;11.046;2022-07-21T06:54:07;21.30;99.90
3360;DHT22;1693;49.602;11.046;2022-07-21T06:56:34;21.40;99.90
3360;DHT22;1693;49.602;11.046;2022-07-21T06:59:01;21.40;99.90
3360;DHT22;1693;49.602;11.046;2022-07-21T07:01:28;21.70;99.90
3360;DHT22;1693;49.602;11.046;2022-07-21T07:03:56;21.70;99.90
3360;DHT22;1693;49.602;11.046;2022-07-21T07:06:24;21.40;99.90
3360;DHT22;1693;49.602;11.046;2022-07-21T07:08:51;21.20;99.90
3360;DHT22;1693;49.602;11.046;2022-07-21T07:11:18;21.20;99.90
3360;DHT22;1693;49.602;11.046;2022-07-21T07:13:46;21.30;99.90
3360;DHT22;1693;49.602;11.046;2022-07-21T07:16:13;21.30;99.90
3360;DHT22;1693;49.602;11.046;2022-07-21T07:18:40;21.60;99.90
3360;DHT22;1693;49.602;11.046;2022-07-21T07:21:10;21.80;99.90
3360;DHT22;1693;49.602;11.046;2022-07-21T07:23:37;22.00;99.90
3360;DHT22;1693;49.602;11.046;2022-07-21T07:26:05;22.30;99.90
3360;DHT22;1693;49.602;11.046;2022-07-21T07:28:32;22.60;99.90
3360;DHT22;1693;49.602;11.046;2022-07-21T07:30:59;22.60;99.90
3360;DHT22;1693;49.602;11.046;2022-07-21T07:33:26;22.60;99.90
3360;DHT22;1693;49.602;11.046;2022-07-21T07:35:54;22.50;99.90
3360;DHT22;1693;49.602;11.046;2022-07-21T07:38:24;22.60;99.90
3360;DHT22;1693;49.602;11.046;2022-07-21T07:40:51;22.60;99.90
3360;DHT22;1693;49.602;11.046;2022-07-21T07:43:18;22.60;99.90
3360;DHT22;1693;49.602;11.046;2022-07-21T07:45:45;22.60;99.90
3360;DHT22;1693;49.602;11.046;2022-07-21T07:48:12;22.60;99.90
3360;DHT22;1693;49.602;11.046;2022-07-21T07:50:39;22.70;99.90
3360;DHT22;1693;49.602;11.046;2022-07-21T07:53:06;22.80;99.90
3360;DHT22;1693;49.602;11.046;2022-07-21T07:55:35;23.00;99.90
3360;DHT22;1693;49.602;11.046;2022-07-21T07:58:02;23.10;99.90
3360;DHT22;1693;49.602;11.046;2022-07-21T08:00:29;23.40;99.90
3360;DHT22;1693;49.602;11.046;2022-07-21T08:02:56;23.50;99.90
3360;DHT22;1693;49.602;11.046;2022-07-21T08:05:25;23.80;99.90
3360;DHT22;1693;49.602;11.046;2022-07-21T08:07:52;24.00;99.90
3360;DHT22;1693;49.602;11.046;2022-07-21T08:10:19;24.30;99.90
3360;DHT22;1693;49.602;11.046;2022-07-21T08:12:47;24.50;99.90
3360;DHT22;1693;49.602;11.046;2022-07-21T08:15:14;24.80;99.90
3360;DHT22;1693;49.602;11.046;2022-07-21T08:17:41;25.20;99.90
3360;DHT22;1693;49.602;11.046;2022-07-21T08:20:09;25.30;99.90
3360;DHT22;1693;49.602;11.046;2022-07-21T08:22:37;25.40;99.90
3360;DHT22;1693;49.602;11.046;2022-07-21T08:25:04;25.60;99.90
3360;DHT22;1693;49.602;11.046;2022-07-21T08:27:32;25.50;99.90
3360;DHT22;1693;49.602;11.046;2022-07-21T08:30:00;25.40;99.90
3360;DHT22;1693;49.602;11.046;2022-07-21T08:32:27;25.50;99.90
3360;DHT22;1693;49.602;11.046;2022-07-21T08:34:55;25.50;99.90
3360;DHT22;1693;49.602;11.046;2022-07-21T08:37:22;25.60;99.90
3360;DHT22;1693;49.602;11.046;2022-07-21T08:39:49;25.60;99.90
3360;DHT22;1693;49.602;11.046;2022-07-21T08:42:16;25.80;99.90
3360;DHT22;1693;49.602;11.046;2022-07-21T08:44:43;25.50;99.90
3360;DHT22;1693;49.602;11.046;2022-07-21T08:47:12;25.50;99.90
3360;DHT22;1693;49.602;11.046;2022-07-21T08:49:39;25.40;99.90
3360;DHT22;1693;49.602;11.046;2022-07-21T08:52:06;25.60;99.90
3360;DHT22;1693;49.602;11.046;2022-07-21T08:54:33;25.70;99.90
3360;DHT22;1693;49.602;11.046;2022-07-21T08:57:00;25.80;99.90
3360;DHT22;1693;49.602;11.046;2022-07-21T08:59:27;25.80;99.90
3360;DHT22;1693;49.602;11.046;2022-07-21T09:01:55;26.00;99.90
3360;DHT22;1693;49.602;11.046;2022-07-21T09:04:25;25.40;99.90
3360;DHT22;1693;49.602;11.046;2022-07-21T09:06:54;26.10;99.90
3360;DHT22;1693;49.602;11.046;2022-07-21T09:09:21;26.50;99.90
3360;DHT22;1693;49.602;11.046;2022-07-21T09:11:49;26.70;99.90
3360;DHT22;1693;49.602;11.046;2022-07-21T09:14:19;26.70;99.90
3360;DHT22;1693;49.602;11.046;2022-07-21T09:16:49;26.40;99.90
3360;DHT22;1693;49.602;11.046;2022-07-21T09:19:19;26.30;99.90
3360;DHT22;1693;49.602;11.046;2022-07-21T09:21:50;26.10;99.90
3360;DHT22;1693;49.602;11.046;2022-07-21T09:24:20;26.10;99.90
3360;DHT22;1693;49.602;11.046;2022-07-21T09:27:00;26.00;99.90
3360;DHT22;1693;49.602;11.046;2022-07-21T09:29:34;26.00;99.90
3360;DHT22;1693;49.602;11.046;2022-07-21T09:32:19;26.10;99.90
3360;DHT22;1693;49.602;11.046;2022-07-21T09:34:48;26.10;99.90
3360;DHT22;1693;49.602;11.046;2022-07-21T09:37:18;26.50;99.90
3360;DHT22;1693;49.602;11.046;2022-07-21T09:39:47;26.50;99.90
3360;DHT22;1693;49.602;11.046;2022-07-21T09:42:21;26.70;99.90
3360;DHT22;1693;49.602;11.046;2022-07-21T09:44:50;26.90;99.90
3360;DHT22;1693;49.602;11.046;2022-07-21T09:47:19;26.70;99.90
3360;DHT22;1693;49.602;11.046;2022-07-21T09:49:46;26.70;99.90
3360;DHT22;1693;49.602;11.046;2022-07-21T09:52:27;27.10;99.90
3360;DHT22;1693;49.602;11.046;2022-07-21T09:54:56;27.50;99.90
3360;DHT22;1693;49.602;11.046;2022-07-21T09:57:24;27.70;99.90
3360;DHT22;1693;49.602;11.046;2022-07-21T09:59:51;28.00;99.90
3360;DHT22;1693;49.602;11.046;2022-07-21T10:02:20;28.00;99.90
3360;DHT22;1693;49.602;11.046;2022-07-21T10:04:54;28.00;99.90
3360;DHT22;1693;49.602;11.046;2022-07-21T10:07:24;28.00;99.90
3360;DHT22;1693;49.602;11.046;2022-07-21T10:09:51;27.80;99.90
3360;DHT22;1693;49.602;11.046;2022-07-21T10:12:19;27.40;99.90
3360;DHT22;1693;49.602;11.046;2022-07-21T10:14:46;27.30;99.90
3360;DHT22;1693;49.602;11.046;2022-07-21T10:17:14;27.10;99.90
3360;DHT22;1693;49.602;11.046;2022-07-21T10:19:52;27.10;99.90
3360;DHT22;1693;49.602;11.046;2022-07-21T10:22:31;27.30;99.90
3360;DHT22;1693;49.602;11.046;2022-07-21T10:25:03;27.70;99.90
3360;DHT22;1693;49.602;11.046;2022-07-21T10:27:30;28.10;99.90
3360;DHT22;1693;49.602;11.046;2022-07-21T10:29:59;28.20;99.90
3360;DHT22;1693;49.602;11.046;2022-07-21T10:32:30;28.10;99.90
3360;DHT22;1693;49.602;11.046;2022-07-21T10:35:02;27.70;99.90
3360;DHT22;1693;49.602;11.046;2022-07-21T10:38:05;27.70;99.90
3360;DHT22;1693;49.602;11.046;2022-07-21T10:40:38;28.00;99.90
3360;DHT22;1693;49.602;11.046;2022-07-21T10:43:37;28.60;99.90
3360;DHT22;1693;49.602;11.046;2022-07-21T10:46:32;29.20;98.60
3360;DHT22;1693;49.602;11.046;2022-07-21T10:49:00;28.90;98.10
3360;DHT22;1693;49.602;11.046;2022-07-21T10:51:28;28.90;98.90
3360;DHT22;1693;49.602;11.046;2022-07-21T10:54:25;28.40;98.90
3360;DHT22;1693;49.602;11.046;2022-07-21T10:57:26;28.40;98.90
3360;DHT22;1693;49.602;11.046;2022-07-21T11:00:23;28.30;98.80
3360;DHT22;1693;49.602;11.046;2022-07-21T11:02:52;28.20;98.90
3360;DHT22;1693;49.602;11.046;2022-07-21T11:05:20;28.70;98.40
3360;DHT22;1693;49.602;11.046;2022-07-21T11:08:13;28.70;97.50
3360;DHT22;1693;49.602;11.046;2022-07-21T11:10:44;28.70;97.40
3360;DHT22;1693;49.602;11.046;2022-07-21T11:13:12;29.00;97.60
3360;DHT22;1693;49.602;11.046;2022-07-21T11:15:51;29.20;97.30
3360;DHT22;1693;49.602;11.046;2022-07-21T11:18:21;29.10;96.40
3360;DHT22;1693;49.602;11.046;2022-07-21T11:21:02;29.00;96.10
3360;DHT22;1693;49.602;11.046;2022-07-21T11:23:44;28.90;96.90
3360;DHT22;1693;49.602;11.046;2022-07-21T11:26:15;28.80;96.60
3360;DHT22;1693;49.602;11.046;2022-07-21T11:28:43;28.80;96.40
3360;DHT22;1693;49.602;11.046;2022-07-21T11:31:13;29.00;96.20
3360;DHT22;1693;49.602;11.046;2022-07-21T11:33:43;29.20;96.10
3360;DHT22;1693;49.602;11.046;2022-07-21T11:36:22;29.70;95.50
3360;DHT22;1693;49.602;11.046;2022-07-21T11:39:00;30.00;94.60
3360;DHT22;1693;49.602;11.046;2022-07-21T11:41:29;29.70;93.80
3360;DHT22;1693;49.602;11.046;2022-07-21T11:43:57;29.50;93.50
3360;DHT22;1693;49.602;11.046;2022-07-21T11:46:26;29.40;93.00
3360;DHT22;1693;49.602;11.046;2022-07-21T11:49:03;29.10;91.70
3360;DHT22;1693;49.602;11.046;2022-07-21T11:51:30;28.50;92.20
3360;DHT22;1693;49.602;11.046;2022-07-21T11:53:58;28.30;92.70
3360;DHT22;1693;49.602;11.046;2022-07-21T11:56:25;28.60;93.40
3360;DHT22;1693;49.602;11.046;2022-07-21T11:59:08;28.90;92.80
3360;DHT22;1693;49.602;11.046;2022-07-21T12:01:48;29.40;92.10
3360;DHT22;1693;49.602;11.046;2022-07-21T12:04:26;29.70;91.40
3360;DHT22;1693;49.602;11.046;2022-07-21T12:06:53;29.80;89.30
3360;DHT22;1693;49.602;11.046;2022-07-21T12:09:21;29.90;89.60
3360;DHT22;1693;49.602;11.046;2022-07-21T12:11:48;30.00;89.90
3360;DHT22;1693;49.602;11.046;2022-07-21T12:14:19;30.80;88.30
3360;DHT22;1693;49.602;11.046;2022-07-21T12:16:49;31.40;86.50
3360;DHT22;1693;49.602;11.046;2022-07-21T12:19:17;32.30;83.40
3360;DHT22;1693;49.602;11.046;2022-07-21T12:21:46;32.70;79.60
3360;DHT22;1693;49.602;11.046;2022-07-21T12:24:16;34.30;79.60
3360;DHT22;1693;49.602;11.046;2022-07-21T12:26:43;35.80;71.60
3360;DHT22;1693;49.602;11.046;2022-07-21T12:29:10;36.10;69.30
3360;DHT22;1693;49.602;11.046;2022-07-21T12:31:52;36.70;65.90
3360;DHT22;1693;49.602;11.046;2022-07-21T12:34:19;36.40;63.30
3360;DHT22;1693;49.602;11.046;2022-07-21T12:36:47;35.40;63.20
3360;DHT22;1693;49.602;11.046;2022-07-21T12:39:16;34.50;64.10
3360;DHT22;1693;49.602;11.046;2022-07-21T12:42:05;33.60;65.70
3360;DHT22;1693;49.602;11.046;2022-07-21T12:44:33;32.80;67.60
3360;DHT22;1693;49.602;11.046;2022-07-21T12:47:16;32.60;68.40
3360;DHT22;1693;49.602;11.046;2022-07-21T12:49:56;31.90;70.40
3360;DHT22;1693;49.602;11.046;2022-07-21T12:52:24;32.10;71.10
3360;DHT22;1693;49.602;11.046;2022-07-21T12:54:51;32.20;70.20
3360;DHT22;1693;49.602;11.046;2022-07-21T12:57:18;32.80;70.80
3360;DHT22;1693;49.602;11.046;2022-07-21T12:59:46;34.30;70.30
3360;DHT22;1693;49.602;11.046;2022-07-21T13:02:13;35.50;66.90
3360;DHT22;1693;49.602;11.046;2022-07-21T13:04:41;36.50;64.40
3360;DHT22;1693;49.602;11.046;2022-07-21T13:07:08;38.40;58.80
3360;DHT22;1693;49.602;11.046;2022-07-21T13:09:35;39.40;57.40
3360;DHT22;1693;49.602;11.046;2022-07-21T13:12:02;40.40;54.90
3360;DHT22;1693;49.602;11.046;2022-07-21T13:14:31;41.00;52.60
3360;DHT22;1693;49.602;11.046;2022-07-21T13:16:58;40.80;50.20
3360;DHT22;1693;49.602;11.046;2022-07-21T13:19:25;39.80;49.70
3360;DHT22;1693;49.602;11.046;2022-07-21T13:22:00;38.10;49.80
3360;DHT22;1693;49.602;11.046;2022-07-21T13:24:28;35.90;50.90
3360;DHT22;1693;49.602;11.046;2022-07-21T13:26:55;35.90;53.00
3360;DHT22;1693;49.602;11.046;2022-07-21T13:29:22;36.10;52.70
3360;DHT22;1693;49.602;11.046;2022-07-21T13:31:49;36.30;52.50
3360;DHT22;1693;49.602;11.046;2022-07-21T13:34:17;35.80;52.90
3360;DHT22;1693;49.602;11.046;2022-07-21T13:36:44;35.90;53.10
3360;DHT22;1693;49.602;11.046;2022-07-21T13:39:18;36.70;52.40
3360;DHT22;1693;49.602;11.046;2022-07-21T13:41:49;38.70;51.10
3360;DHT22;1693;49.602;11.046;2022-07-21T13:44:16;38.20;47.80
3360;DHT22;1693;49.602;11.046;2022-07-21T13:46:43;37.20;49.00
3360;DHT22;1693;49.602;11.046;2022-07-21T13:49:10;37.40;49.40
3360;DHT22;1693;49.602;11.046;2022-07-21T13:51:37;38.30;48.70
3360;DHT22;1693;49.602;11.046;2022-07-21T13:54:05;39.00;47.20
3360;DHT22;1693;49.602;11.046;2022-07-21T13:56:34;38.50;46.40
3360;DHT22;1693;49.602;11.046;2022-07-21T13:59:01;37.90;47.90
3360;DHT22;1693;49.602;11.046;2022-07-21T14:01:28;38.40;47.10
3360;DHT22;1693;49.602;11.046;2022-07-21T14:03:55;38.60;45.40
3360;DHT22;1693;49.602;11.046;2022-07-21T14:06:22;37.20;45.90
3360;DHT22;1693;49.602;11.046;2022-07-21T14:08:49;35.50;47.80
3360;DHT22;1693;49.602;11.046;2022-07-21T14:11:17;36.00;48.70
3360;DHT22;1693;49.602;11.046;2022-07-21T14:13:47;36.30;47.60
3360;DHT22;1693;49.602;11.046;2022-07-21T14:16:14;35.50;48.20
3360;DHT22;1693;49.602;11.046;2022-07-21T14:18:41;36.10;49.10
3360;DHT22;1693;49.602;11.046;2022-07-21T14:21:08;35.80;48.40
3360;DHT22;1693;49.602;11.046;2022-07-21T14:23:35;34.80;48.80
3360;DHT22;1693;49.602;11.046;2022-07-21T14:26:02;34.20;49.90
3360;DHT22;1693;49.602;11.046;2022-07-21T14:28:30;36.10;49.70
3360;DHT22;1693;49.602;11.046;2022-07-21T14:30:58;37.50;49.40
3360;DHT22;1693;49.602;11.046;2022-07-21T14:33:25;38.80;47.60
3360;DHT22;1693;49.602;11.046;2022-07-21T14:35:54;39.00;46.20
3360;DHT22;1693;49.602;11.046;2022-07-21T14:38:22;38.50;45.80
3360;DHT22;1693;49.602;11.046;2022-07-21T14:40:49;38.40;45.50
3360;DHT22;1693;49.602;11.046;2022-07-21T14:43:18;39.20;45.90
3360;DHT22;1693;49.602;11.046;2022-07-21T14:45:46;38.30;44.60
3360;DHT22;1693;49.602;11.046;2022-07-21T14:48:16;37.10;45.80
3360;DHT22;1693;49.602;11.046;2022-07-21T14:50:47;35.30;46.50
3360;DHT22;1693;49.602;11.046;2022-07-21T14:53:15;35.30;48.10
3360;DHT22;1693;49.602;11.046;2022-07-21T14:55:43;34.80;47.70
3360;DHT22;1693;49.602;11.046;2022-07-21T14:58:12;33.90;48.80
3360;DHT22;1693;49.602;11.046;2022-07-21T15:00:39;34.30;49.40
3360;DHT22;1693;49.602;11.046;2022-07-21T15:03:06;35.80;48.50
3360;DHT22;1693;49.602;11.046;2022-07-21T15:05:37;37.10;48.40
3360;DHT22;1693;49.602;11.046;2022-07-21T15:08:06;38.20;46.20
3360;DHT22;1693;49.602;11.046;2022-07-21T15:10:34;37.10;45.20
3360;DHT22;1693;49.602;11.046;2022-07-21T15:13:02;37.70;45.80
3360;DHT22;1693;49.602;11.046;2022-07-21T15:15:29;38.50;45.80
3360;DHT22;1693;49.602;11.046;2022-07-21T15:17:56;39.00;43.80
3360;DHT22;1693;49.602;11.046;2022-07-21T15:20:24;38.80;43.70
3360;DHT22;1693;49.602;11.046;2022-07-21T15:22:54;38.00;44.10
3360;DHT22;1693;49.602;11.046;2022-07-21T15:25:25;38.30;44.90
3360;DHT22;1693;49.602;11.046;2022-07-21T15:27:54;38.40;44.10
3360;DHT22;1693;49.602;11.046;2022-07-21T15:30:20;38.40;43.90
3360;DHT22;1693;49.602;11.046;2022-07-21T15:32:49;39.00;43.80
3360;DHT22;1693;49.602;11.046;2022-07-21T15:35:16;38.80;43.20
3360;DHT22;1693;49.602;11.046;2022-07-21T15:37:43;38.30;43.80
3360;DHT22;1693;49.602;11.046;2022-07-21T15:40:11;36.90;44.00
3360;DHT22;1693;49.602;11.046;2022-07-21T15:42:41;35.80;45.60
3360;DHT22;1693;49.602;11.046;2022-07-21T15:45:10;36.50;44.80
3360;DHT22;1693;49.602;11.046;2022-07-21T15:47:38;36.00;45.10
3360;DHT22;1693;49.602;11.046;2022-07-21T15:50:07;37.00;44.70
3360;DHT22;1693;49.602;11.046;2022-07-21T15:52:36;37.70;44.50
3360;DHT22;1693;49.602;11.046;2022-07-21T15:55:04;39.10;43.70
3360;DHT22;1693;49.602;11.046;2022-07-21T15:57:34;40.40;42.20